createdAt,value
2022-08-05T00:01:20.431Z,32.82
2022-08-05T00:03:29.254Z,32.8
2022-08-05T00:06:35.768Z,32.66
2022-08-05T00:09:02.781Z,32.66
2022-08-05T00:11:34.917Z,32.61
2022-08-05T00:13:59.269Z,32.86
2022-08-05T00:17:18.877Z,32.39
2022-08-05T00:19:44.018Z,32.39
2022-08-05T00:22:01.067Z,32.39
2022-08-05T00:24:30.810Z,32.49
2022-08-05T00:27:36.045Z,32.48
2022-08-05T00:30:03.130Z,32.49
2022-08-05T00:32:22.910Z,32.4
2022-08-05T00:35:32.954Z,32.2
2022-08-05T00:38:34.025Z,32.33
2022-08-05T00:41:01.811Z,32.32
2022-08-05T00:43:30.070Z,32.41
2022-08-05T00:46:36.842Z,32.5
2022-08-05T00:49:03.603Z,32.56
2022-08-05T00:51:50.093Z,32.57
2022-08-05T00:54:02.915Z,32.57
2022-08-05T00:56:28.356Z,32.54
2022-08-05T00:59:33.762Z,32.59
2022-08-05T01:02:01.943Z,32.61
2022-08-05T01:05:10.091Z,32.64
2022-08-05T01:08:30.585Z,32.8
2022-08-05T01:11:21.973Z,32.87
2022-08-05T01:14:27.241Z,33.02
2022-08-05T01:18:05.547Z,33.09
2022-08-05T01:20:33.759Z,33.14
2022-08-05T01:23:05.862Z,33.21
2022-08-05T01:25:39.535Z,33.43
2022-08-05T01:28:35.582Z,33.43
2022-08-05T01:31:03.852Z,33.39
2022-08-05T01:33:25.153Z,33.34
2022-08-05T01:36:29.208Z,33.32
2022-08-05T01:39:46.985Z,33.34
2022-08-05T01:42:02.788Z,33.34
2022-08-05T01:44:34.164Z,33.38
2022-08-05T01:46:59.246Z,33.06
2022-08-05T01:50:04.587Z,33.29
2022-08-05T01:52:32.820Z,33.2
2022-08-05T01:55:01.078Z,33.15
2022-08-05T01:58:18.987Z,33
2022-08-05T02:00:34.633Z,33.16
2022-08-05T02:03:03.614Z,33.21
2022-08-05T02:05:31.116Z,33.25
2022-08-05T02:08:00.471Z,33.23
2022-08-05T02:10:28.637Z,33.25
2022-08-05T02:13:36.402Z,33.23
2022-08-05T02:16:01.174Z,33.24
2022-08-05T02:18:33.394Z,33.33
2022-08-05T02:21:40.295Z,33.27
2022-08-05T02:24:03.007Z,33.25
2022-08-05T02:26:31.231Z,33.27
2022-08-05T02:29:59.287Z,33.22
2022-08-05T02:33:10.764Z,33.21
2022-08-05T02:36:16.024Z,33.16
2022-08-05T02:39:21.591Z,33.05
2022-08-05T02:42:27.764Z,33.12
2022-08-05T02:45:51.336Z,33.14
2022-08-05T02:48:07.197Z,33.15
2022-08-05T02:50:28.457Z,33.03
2022-08-05T02:53:39.227Z,32.93
2022-08-05T02:56:02.072Z,32.93
2022-08-05T02:58:30.562Z,33.11
2022-08-05T03:01:35.639Z,33.14
2022-08-05T03:04:12.155Z,33.16
2022-08-05T03:06:53.157Z,33.08
2022-08-05T03:09:00.348Z,33.32
2022-08-05T03:11:50.080Z,32.97
2022-08-05T03:15:12.325Z,32.89
2022-08-05T03:18:17.376Z,32.73
2022-08-05T03:21:21.569Z,32.77
2022-08-05T03:24:29.762Z,32.68
2022-08-05T03:27:39.488Z,32.63
2022-08-05T03:30:07.884Z,32.65
2022-08-05T03:32:30.795Z,32.66
2022-08-05T03:35:25.820Z,32.59
2022-08-05T03:38:33.041Z,32.18
2022-08-05T03:40:59.455Z,32.05
2022-08-05T03:43:59.402Z,31.61
2022-08-05T03:46:32.990Z,31.28
2022-08-05T03:49:01.816Z,31.25
2022-08-05T03:52:36.351Z,31.19
2022-08-05T03:55:34.840Z,31.23
2022-08-05T03:57:16.190Z,31.24
2022-08-05T03:59:47.439Z,31.03
2022-08-05T04:01:59.515Z,30.99
2022-08-05T04:04:27.768Z,30.87
2022-08-05T04:07:33.125Z,30.85
2022-08-05T04:10:01.776Z,30.86
2022-08-05T04:12:29.542Z,30.84
2022-08-05T04:15:36.366Z,30.76
2022-08-05T04:18:03.232Z,30.82
2022-08-05T04:20:31.332Z,30.95
2022-08-05T04:22:59.590Z,31
2022-08-05T04:25:38.601Z,30.94
2022-08-05T04:28:33.172Z,30.8
2022-08-05T04:31:01.533Z,30.78
2022-08-05T04:33:36.346Z,30.93
2022-08-05T04:36:38.775Z,30.84
2022-08-05T04:39:32.385Z,30.86
2022-08-05T04:42:00.337Z,32.84
2022-08-05T04:45:05.663Z,31.06
2022-08-05T04:47:38.698Z,31.12
2022-08-05T04:50:11.014Z,31.13
2022-08-05T04:52:32.653Z,31.1
2022-08-05T04:55:39.836Z,30.98
2022-08-05T04:58:03.964Z,30.95
2022-08-05T05:00:32.206Z,30.96
2022-08-05T05:03:03.213Z,30.98
2022-08-05T05:05:29.315Z,30.87
2022-08-05T05:09:11.044Z,30.81
2022-08-05T05:12:16.389Z,30.91
2022-08-05T05:15:54.228Z,30.9
2022-08-05T05:18:27.973Z,31.06
2022-08-05T05:21:32.974Z,31.17
2022-08-05T05:24:02.674Z,31.18
2022-08-05T05:26:32.860Z,31.24
2022-08-05T05:29:41.040Z,31.24
2022-08-05T05:32:02.406Z,31.27
2022-08-05T05:34:59.470Z,31.38
2022-08-05T05:37:29.257Z,31.41
2022-08-05T05:40:33.055Z,31.44
2022-08-05T05:43:02.052Z,31.45
2022-08-05T05:45:29.545Z,31.27
2022-08-05T05:48:34.828Z,31.31
2022-08-05T05:51:05.116Z,31.38
2022-08-05T05:53:31.319Z,31.55
2022-08-05T05:56:01.172Z,31.56
2022-08-05T05:58:30.093Z,31.53
2022-08-05T06:01:37.312Z,31.52
2022-08-05T06:04:03.748Z,31.56
2022-08-05T06:06:30.927Z,31.6
2022-08-05T06:09:36.376Z,31.63
2022-08-05T06:12:03.272Z,31.65
2022-08-05T06:14:31.447Z,31.68
2022-08-05T06:16:59.691Z,31.7
2022-08-05T06:19:33.020Z,31.75
2022-08-05T06:22:33.417Z,31.81
2022-08-05T06:25:01.487Z,31.81
2022-08-05T06:28:09.657Z,31.66
2022-08-05T06:30:35.066Z,31.58
2022-08-05T06:33:03.380Z,31.62
2022-08-05T06:36:04.472Z,31.62
2022-08-05T06:38:35.754Z,31.73
2022-08-05T06:42:11.071Z,31.94
2022-08-05T06:45:20.945Z,31.9
2022-08-05T06:48:47.534Z,31.83
2022-08-05T06:51:29.103Z,31.89
2022-08-05T06:54:32.330Z,31.91
2022-08-05T06:57:13.768Z,31.91
2022-08-05T06:59:28.770Z,31.92
2022-08-05T07:02:34.117Z,31.98
2022-08-05T07:05:02.363Z,31.99
2022-08-05T07:07:35.341Z,31.9
2022-08-05T07:09:58.854Z,31.88
2022-08-05T07:12:27.109Z,31.61
2022-08-05T07:15:34.254Z,31.59
2022-08-05T07:18:05.632Z,31.62
2022-08-05T07:20:33.711Z,31.64
2022-08-05T07:23:34.232Z,31.54
2022-08-05T07:26:02.468Z,31.52
2022-08-05T07:28:30.716Z,31.5
2022-08-05T07:30:58.955Z,31.52
2022-08-05T07:33:35.394Z,31.56
2022-08-05T07:36:24.330Z,31.61
2022-08-05T07:40:04.866Z,31.63
2022-08-05T07:42:36.316Z,31.6
2022-08-05T07:45:03.214Z,31.6
2022-08-05T07:47:42.448Z,31.62
2022-08-05T07:49:59.734Z,31.61
2022-08-05T07:52:27.932Z,31.55
2022-08-05T07:55:44.124Z,31.6
2022-08-05T07:58:02.916Z,31.62
2022-08-05T08:00:29.805Z,31.61
2022-08-05T08:03:44.222Z,31.41
2022-08-05T08:06:03.312Z,31.37
2022-08-05T08:08:31.576Z,31.25
2022-08-05T08:10:59.835Z,31.25
2022-08-05T08:13:29.277Z,31.21
2022-08-05T08:16:50.655Z,31.13
2022-08-05T08:19:01.622Z,31.02
2022-08-05T08:21:29.884Z,30.83
2022-08-05T08:24:00.699Z,30.78
2022-08-05T08:26:27.167Z,30.87
2022-08-05T08:30:04.763Z,31.02
2022-08-05T08:31:59.928Z,31.05
2022-08-05T08:34:30.081Z,30.77
2022-08-05T08:37:27.774Z,30.85
2022-08-05T08:40:30.592Z,30.82
2022-08-05T08:45:17.226Z,30.69
2022-08-05T08:46:04.175Z,30.61
2022-08-05T08:48:43.757Z,30.3
2022-08-05T08:51:04.379Z,30.23
2022-08-05T08:53:28.971Z,30.08
2022-08-05T08:56:34.207Z,29.99
2022-08-05T08:59:04.814Z,29.96
2022-08-05T09:01:30.804Z,29.99
2022-08-05T09:03:58.957Z,29.94
2022-08-05T09:06:27.954Z,30.04
2022-08-05T09:09:34.922Z,30.25
2022-08-05T09:12:06.014Z,30.26
2022-08-05T09:14:54.981Z,30.31
2022-08-05T09:17:41.562Z,30.4
2022-08-05T09:20:04.964Z,30.47
2022-08-05T09:22:32.172Z,30.6
2022-08-05T09:24:59.093Z,30.62
2022-08-05T09:28:03.371Z,30.79
2022-08-05T09:30:32.643Z,30.86
2022-08-05T09:33:00.880Z,30.87
2022-08-05T09:35:26.998Z,30.98
2022-08-05T09:38:27.271Z,30.93
2022-08-05T09:41:32.866Z,31
2022-08-05T09:43:59.800Z,31
2022-08-05T09:46:28.489Z,31.09
2022-08-05T09:49:40.575Z,31.21
2022-08-05T09:52:01.610Z,31.23
2022-08-05T09:54:29.844Z,31.28
2022-08-05T09:57:35.473Z,31.34
2022-08-05T10:00:07.386Z,31.34
2022-08-05T10:02:31.729Z,31.44
2022-08-05T10:04:59.918Z,31.48
2022-08-05T10:08:11.477Z,31.62
2022-08-05T10:10:33.465Z,31.71
2022-08-05T10:13:01.739Z,31.74
2022-08-05T10:15:29.993Z,31.83
2022-08-05T10:18:35.243Z,31.8
2022-08-05T10:21:06.225Z,31.8
2022-08-05T10:23:34.891Z,31.91
2022-08-05T10:26:00.051Z,31.95
2022-08-05T10:28:29.028Z,31.92
2022-08-05T10:33:25.054Z,32.12
2022-08-05T10:36:23.511Z,32.16
2022-08-05T10:39:59.550Z,32.12
2022-08-05T10:42:34.041Z,32.23
2022-08-05T10:45:00.795Z,32.31
2022-08-05T10:47:31.206Z,32.5
2022-08-05T10:50:36.732Z,32.47
2022-08-05T10:53:02.555Z,32.45
2022-08-05T10:56:14.814Z,32.5
2022-08-05T11:00:01.474Z,32.68
2022-08-05T11:02:35.166Z,32.79
2022-08-05T11:05:27.470Z,32.87
2022-08-05T11:08:36.901Z,32.91
2022-08-05T11:11:42.037Z,32.91
2022-08-05T11:14:02.666Z,32.89
2022-08-05T11:17:56.943Z,32.93
2022-08-05T11:20:09.836Z,33.08
2022-08-05T11:22:04.473Z,33.08
2022-08-05T11:24:32.724Z,33.04
2022-08-05T11:27:00.971Z,33.05
2022-08-05T11:29:29.250Z,33.14
2022-08-05T11:32:34.532Z,33.18
2022-08-05T11:35:02.737Z,33.22
2022-08-05T11:38:27.123Z,33.25
2022-08-05T11:41:14.257Z,33.32
2022-08-05T11:43:35.481Z,33.41
2022-08-05T11:46:15.901Z,33.46
2022-08-05T11:48:29.944Z,33.57
2022-08-05T11:51:43.919Z,33.65
2022-08-05T11:54:03.510Z,33.68
2022-08-05T11:56:40.855Z,33.75
2022-08-05T11:59:00.023Z,33.74
2022-08-05T12:01:28.260Z,33.74
2022-08-05T12:04:33.572Z,33.9
2022-08-05T12:07:01.907Z,33.93
2022-08-05T12:09:38.768Z,34.09
2022-08-05T12:11:58.307Z,34.13
2022-08-05T12:14:26.563Z,34.18
2022-08-05T12:18:00.622Z,34.28
2022-08-05T12:20:17.360Z,34.29
2022-08-05T12:22:28.388Z,34.24
2022-08-05T12:25:33.680Z,34.37
2022-08-05T12:28:02.420Z,34.39
2022-08-05T12:30:32.111Z,34.38
2022-08-05T12:33:36.107Z,34.4
2022-08-05T12:36:03.788Z,34.41
2022-08-05T12:38:23.791Z,34.33
2022-08-05T12:41:34.283Z,34.3
2022-08-05T12:44:34.451Z,34.34
2022-08-05T12:47:02.684Z,34.31
2022-08-05T12:50:02.802Z,34.16
2022-08-05T12:52:11.290Z,34.18
2022-08-05T12:54:27.407Z,34.25
2022-08-05T12:58:38.142Z,34.18
2022-08-05T13:01:59.252Z,34.18
2022-08-05T13:02:30.416Z,34.16
2022-08-05T13:05:37.536Z,34.3
2022-08-05T13:08:03.059Z,34.32
2022-08-05T13:10:31.061Z,34.41
2022-08-05T13:12:59.266Z,34.43
2022-08-05T13:15:36.224Z,34.47
2022-08-05T13:18:32.855Z,34.57
2022-08-05T13:21:01.075Z,34.62
2022-08-05T13:23:29.305Z,34.84
2022-08-05T13:26:34.625Z,35.07
2022-08-05T13:29:02.894Z,35.13
2022-08-05T13:31:33.615Z,35.4
2022-08-05T13:34:20.503Z,35.43
2022-08-05T13:36:27.650Z,35.5
2022-08-05T13:40:13.331Z,35.45
2022-08-05T13:42:30.059Z,35.46
2022-08-05T13:45:38.583Z,35.5
2022-08-05T13:48:09.079Z,35.5
2022-08-05T13:50:31.859Z,35.59
2022-08-05T13:53:00.151Z,35.63
2022-08-05T13:55:40.636Z,35.66
2022-08-05T13:58:33.685Z,35.79
2022-08-05T14:01:01.986Z,35.82
2022-08-05T14:03:30.175Z,35.91
2022-08-05T14:06:35.485Z,35.86
2022-08-05T14:09:03.726Z,35.84
2022-08-05T14:11:31.965Z,35.73
2022-08-05T14:14:00.256Z,35.68
2022-08-05T14:16:28.460Z,35.43
2022-08-05T14:19:33.792Z,35.5
2022-08-05T14:22:08.230Z,35.46
2022-08-05T14:24:30.590Z,35.39
2022-08-05T14:27:35.597Z,35.28
2022-08-05T14:30:04.204Z,35.25
2022-08-05T14:32:32.251Z,35.2
2022-08-05T14:35:00.324Z,35.21
2022-08-05T14:37:20.381Z,35.09
2022-08-05T14:40:25.719Z,35.09
2022-08-05T14:43:54.012Z,34.97
2022-08-05T14:45:59.264Z,34.93
2022-08-05T14:48:32.804Z,34.91
2022-08-05T14:51:32.799Z,34.86
2022-08-05T14:54:07.007Z,34.86
2022-08-05T14:56:29.325Z,34.84
2022-08-05T14:59:35.318Z,34.83
2022-08-05T15:02:03.011Z,34.8
2022-08-05T15:04:31.109Z,34.77
2022-08-05T15:06:59.386Z,34.75
2022-08-05T15:09:50.677Z,34.78
2022-08-05T15:12:51.569Z,34.88
2022-08-05T15:15:01.194Z,34.93
2022-08-05T15:17:45.206Z,34.97
2022-08-05T15:20:34.752Z,35.05
2022-08-05T15:23:03.006Z,35.09
2022-08-05T15:25:41.510Z,35.09
2022-08-05T15:27:59.491Z,35.11
2022-08-05T15:30:27.764Z,35.03
2022-08-05T15:34:06.109Z,34.86
2022-08-05T15:36:03.520Z,34.75
2022-08-05T15:38:35.274Z,34.59
2022-08-05T15:41:55.308Z,34.49
2022-08-05T15:44:03.244Z,34.4
2022-08-05T15:46:31.355Z,33.93
2022-08-05T15:49:41.963Z,33.74
2022-08-05T15:52:04.667Z,33.75
2022-08-05T15:54:29.477Z,33.7
2022-08-05T15:57:33.185Z,33.68
2022-08-05T16:00:56.856Z,33.78
2022-08-05T16:03:03.921Z,33.79
2022-08-05T16:05:32.102Z,33.96
2022-08-05T16:08:00.333Z,33.98
2022-08-05T16:10:28.562Z,33.84
2022-08-05T16:13:34.164Z,33.9
2022-08-05T16:16:02.120Z,33.88
2022-08-05T16:18:30.356Z,33.66
2022-08-05T16:20:58.633Z,33.59
2022-08-05T16:23:26.872Z,33.56
2022-08-05T16:26:32.196Z,33.53
2022-08-05T16:29:00.416Z,33.43
2022-08-05T16:31:56.510Z,33.16
2022-08-05T16:34:33.987Z,33.13
2022-08-05T16:37:02.246Z,33.08
2022-08-05T16:40:04.331Z,32.82
2022-08-05T16:42:13.360Z,32.84
2022-08-05T16:44:27.006Z,32.71
2022-08-05T16:47:36.436Z,32.63
2022-08-05T16:49:52.368Z,32.68
2022-08-05T16:52:20.635Z,32.7
2022-08-05T16:55:25.893Z,32.48
2022-08-05T16:58:31.234Z,32.45
2022-08-05T17:00:59.575Z,32.41
2022-08-05T17:03:27.898Z,32.37
2022-08-05T17:06:33.062Z,32.33
2022-08-05T17:09:01.258Z,32.34
2022-08-05T17:11:29.529Z,32.25
2022-08-05T17:14:37.047Z,32.22
2022-08-05T17:17:03.100Z,32.22
2022-08-05T17:19:31.402Z,31.96
2022-08-05T17:21:59.585Z,31.93
2022-08-05T17:24:35.279Z,31.65
2022-08-05T17:27:34.061Z,31.62
2022-08-05T17:30:02.347Z,31.75
2022-08-05T17:32:29.887Z,31.85
2022-08-05T17:36:07.177Z,31.7
2022-08-05T17:38:04.794Z,31.63
2022-08-05T17:40:31.551Z,31.73
2022-08-05T17:42:59.709Z,31.9
2022-08-05T17:46:04.991Z,31.46
2022-08-05T17:48:33.271Z,31.38
2022-08-05T17:50:53.315Z,31.4
2022-08-05T17:53:21.569Z,31.37
2022-08-05T17:56:28.332Z,31.38
2022-08-05T17:59:32.185Z,31.43
2022-08-05T18:02:00.407Z,31.44
2022-08-05T18:04:30.118Z,31.43
2022-08-05T18:07:41.049Z,31.47
2022-08-05T18:10:08.882Z,31.42
2022-08-05T18:12:30.463Z,31.3
2022-08-05T18:15:36.169Z,31.17
2022-08-05T18:18:07.915Z,31.05
2022-08-05T18:20:32.653Z,30.95
2022-08-05T18:23:08.943Z,30.97
2022-08-05T18:25:32.864Z,30.86
2022-08-05T18:28:34.082Z,31.03
2022-08-05T18:31:02.360Z,31.01
2022-08-05T18:33:37.705Z,30.82
2022-08-05T18:36:35.913Z,30.7
2022-08-05T18:39:04.162Z,30.69
2022-08-05T18:41:54.631Z,31.07
2022-08-05T18:44:05.664Z,31.5
2022-08-05T18:47:05.951Z,31.09
2022-08-05T18:49:30.271Z,31.11
2022-08-05T18:52:32.783Z,30.96
2022-08-05T18:54:59.570Z,30.87
2022-08-05T18:57:27.847Z,30.84
2022-08-05T19:00:34.311Z,30.97
2022-08-05T19:03:03.445Z,30.97
2022-08-05T19:06:06.482Z,31.03
2022-08-05T19:08:34.902Z,31.02
2022-08-05T19:11:05.022Z,30.98
2022-08-05T19:13:31.409Z,31.06
2022-08-05T19:16:03.430Z,31.13
2022-08-05T19:19:05.009Z,31.13
2022-08-05T19:21:34.537Z,31.22
2022-08-05T19:24:04.798Z,31.19
2022-08-05T19:26:29.750Z,31.15
2022-08-05T19:29:35.633Z,31.05
2022-08-05T19:32:03.305Z,31.08
2022-08-05T19:34:31.571Z,31.04
2022-08-05T19:36:59.796Z,31.07
2022-08-05T19:39:28.162Z,31.01
2022-08-05T19:42:35.272Z,30.97
2022-08-05T19:45:01.600Z,31.01
2022-08-05T19:47:29.884Z,30.94
2022-08-05T19:50:26.965Z,30.78
2022-08-05T19:54:03.798Z,30.8
2022-08-05T19:56:11.909Z,30.76
2022-08-05T19:58:29.910Z,30.71
2022-08-05T20:02:06.285Z,30.84
2022-08-05T20:04:02.363Z,30.79
2022-08-05T20:06:32.111Z,30.57
2022-08-05T20:09:02.008Z,30.53
2022-08-05T20:11:27.116Z,30.56
2022-08-05T20:14:32.410Z,30.46
2022-08-05T20:17:00.900Z,30.35
2022-08-05T20:19:36.020Z,30.4
2022-08-05T20:22:34.204Z,30.23
2022-08-05T20:26:17.384Z,30.18
2022-08-05T20:29:26.994Z,30.16
2022-08-05T20:32:27.698Z,30.16
2022-08-05T20:35:32.517Z,30.21
2022-08-05T20:38:05.066Z,31.08
2022-08-05T20:40:29.024Z,30.18
2022-08-05T20:44:17.986Z,30.18
2022-08-05T20:47:16.718Z,30.19
2022-08-05T20:51:36.122Z,29.91
2022-08-05T20:53:57.239Z,29.87
2022-08-05T20:56:28.130Z,29.97
2022-08-05T20:59:46.413Z,30.01
2022-08-05T21:03:12.107Z,30.17
2022-08-05T21:06:23.058Z,30.32
2022-08-05T21:13:09.192Z,30.19
2022-08-05T21:15:33.692Z,30.09
2022-08-05T21:18:01.612Z,30
2022-08-05T21:20:32.515Z,29.85
2022-08-05T21:23:35.986Z,29.89
2022-08-05T21:26:04.029Z,29.81
2022-08-05T21:28:31.676Z,29.67
2022-08-05T21:30:59.939Z,29.64
2022-08-05T21:33:36.776Z,29.55
2022-08-05T21:36:33.499Z,29.84
2022-08-05T21:39:01.768Z,29.88
2022-08-05T21:41:33.027Z,29.93
2022-08-05T21:44:35.259Z,29.87
2022-08-05T21:47:03.539Z,29.84
2022-08-05T21:49:48.726Z,29.92
2022-08-05T21:52:16.987Z,29.9
2022-08-05T21:54:27.733Z,29.89
2022-08-05T21:57:31.092Z,29.92
2022-08-05T22:00:30.691Z,29.78
2022-08-05T22:02:58.960Z,29.69
2022-08-05T22:05:27.603Z,29.46
2022-08-05T22:08:32.601Z,29.53
2022-08-05T22:11:00.757Z,30.18
2022-08-05T22:14:20.043Z,29.42
2022-08-05T22:16:41.547Z,29.28
2022-08-05T22:19:02.547Z,29.28
2022-08-05T22:21:30.804Z,29.29
2022-08-05T22:24:01.663Z,29.29
2022-08-05T22:26:27.332Z,29.23
2022-08-05T22:29:32.837Z,29.24
2022-08-05T22:32:02.980Z,29.28
2022-08-05T22:34:30.118Z,29.3
2022-08-05T22:38:11.468Z,29.29
2022-08-05T22:42:31.212Z,29.36
2022-08-05T22:44:59.140Z,29.34
2022-08-05T22:47:28.777Z,29.33
2022-08-05T22:50:32.727Z,29.35
2022-08-05T22:54:06.920Z,29.43
2022-08-05T22:56:35.143Z,29.46
2022-08-05T22:59:04.741Z,29.39
2022-08-05T23:01:51.039Z,29.39
2022-08-05T23:03:59.974Z,29.37
2022-08-05T23:06:28.153Z,29.25
2022-08-05T23:09:53.074Z,29.26
2022-08-05T23:12:01.708Z,29.3
2022-08-05T23:14:31.941Z,29.16
2022-08-05T23:17:37.385Z,29.19
2022-08-05T23:20:03.495Z,29.21
2022-08-05T23:22:31.770Z,29.15
2022-08-05T23:24:59.977Z,29.15
2022-08-05T23:27:28.746Z,29.19
2022-08-05T23:30:33.580Z,29.18
2022-08-05T23:33:01.817Z,29.13
2022-08-05T23:35:34.315Z,29.1
2022-08-05T23:38:35.340Z,29.14
2022-08-05T23:41:03.619Z,29.12
2022-08-05T23:43:37.151Z,28.9
2022-08-05T23:46:00.142Z,28.9
2022-08-05T23:48:28.332Z,28.72
2022-08-05T23:51:25.503Z,28.85
2022-08-05T23:54:33.912Z,28.97
2022-08-05T23:57:36.126Z,29
